nieuwe - new website meteo.heerschap.net

Tervuren markt Meer informatie Tervuren markt


Bezoek onze andere website:

Meteotemplate

Home Weather Station

Saratoga


Lokaal brand risico:
CBI


Regionaal brand risico: Meer informatie



METAR rapporten vliegvelden

   
EBBR - Brussels
Gewijzigd: May 26 2022 6:20 pm
Gedeeltelijk bewolkt  
Gedeeltelijk bewolkt  
   Wind: WZW 27.8 km/h
Wind: WZW 27.8 km/h
Temperatuur: 18°C
Dauwpunt: 10°C
Vochtigheid: 60%
Barometer: 1022 mb
Bewolking: Gedeeltelijk bewolkt
Zicht: meer dan 10 km
Bewolking: Gedeeltelijk bewolkt 1036.3 m
EBBR 261620Z 25015KT 9999 SCT034 18/10 Q1022 NOSIG
EBAW - Antwerp
Gewijzigd: May 26 2022 6:50 pm
Grotendeels bewolkt  
Grotendeels bewolkt  
   Wind: ZW 29.6 km/h
Wind: ZW 29.6 km/h
Temperatuur: 18°C
Dauwpunt: 10°C
Vochtigheid: 60%
Barometer: 1021 mb
Bewolking: Grotendeels bewolkt
Zicht: meer dan 10 km
Bewolking: Grotendeels bewolkt 1005.8 m
EBAW 261650Z 23016KT 9999 BKN033 18/10 Q1021 NOSIG
EHBK - Maastricht
Gewijzigd: May 26 2022 6:55 pm
Licht bewolkt  
Licht bewolkt  
   Wind: WZW 31.5 km/h
Wind: WZW 31.5 km/h
Temperatuur: 19°C
Dauwpunt: 11°C
Vochtigheid: 60%
Barometer: 1021 mb
Bewolking: Licht bewolkt
Zicht: meer dan 10 km
Bewolking: Licht bewolkt 1097.3 m
EHBK 261655Z AUTO 24017KT 200V280 9999 FEW036 19/11 Q1021 NOSIG
EDLV - Nijmegen
Gewijzigd: May 26 2022 6:50 pm
Grotendeels bewolkt  
Grotendeels bewolkt  
   Wind: WZW 24.1 km/h
Wind: WZW 24.1 km/h
Temperatuur: 20°C
Dauwpunt: 11°C
Vochtigheid: 56%
Barometer: 1020 mb
Bewolking: Grotendeels bewolkt
Zicht: meer dan 10 km
Bewolking: Grotendeels bewolkt 1310.6 m
EDLV 261650Z 24013KT 9999 BKN043 20/11 Q1020
EHRD - Rotterdam
Gewijzigd: May 26 2022 6:55 pm
Gedeeltelijk bewolkt  
Gedeeltelijk bewolkt  
   Wind: WZW 33.3 km/h
Wind: WZW 33.3 km/h
Temperatuur: 17°C
Dauwpunt: 11°C
Vochtigheid: 68%
Barometer: 1020 mb
Bewolking: Gedeeltelijk bewolkt
Zicht: meer dan 10 km
Bewolking: Gedeeltelijk bewolkt
EHRD 261655Z AUTO 24018KT 210V280 9999 NSC 17/11 Q1020 NOSIG
 

Script ontwikkeld door  Saratoga-weather.org Aangepast voor de template door  Weerstation Leuven

U vindt ons ook hier:

Het Weer Aktueel

UK Metoffice

European Weather Network

WeatherCloud

Weather Underground

Benelux Weer Netwerk

AWEKAS

Citizen Weather Observer Program (CWOP)

HAMweather, WeatherForYou, PWS Weather

Apparatuur in gebruik:

Weerstation
Davis VP2

Weerprogramma
Meteobridge

Weercomputer
Meteobridge NANO

Davis VP2

Meteobridge

Meteobridge NANO